sensor_id;sensor_type;location;lat;lon;timestamp;temperature;humidity
15152;DHT22;7676;50.900;6.234;2023-05-14T00:07:21;16.40;99.90
15152;DHT22;7676;50.900;6.234;2023-05-14T00:22:23;16.20;99.90
15152;DHT22;7676;50.900;6.234;2023-05-14T00:37:26;16.20;99.90
15152;DHT22;7676;50.900;6.234;2023-05-14T00:52:28;16.00;99.90
15152;DHT22;7676;50.900;6.234;2023-05-14T01:07:48;15.90;99.90
15152;DHT22;7676;50.900;6.234;2023-05-14T01:22:51;15.80;99.90
15152;DHT22;7676;50.900;6.234;2023-05-14T01:37:56;15.60;99.90
15152;DHT22;7676;50.900;6.234;2023-05-14T01:52:59;15.50;99.90
15152;DHT22;7676;50.900;6.234;2023-05-14T02:08:02;15.30;99.90
15152;DHT22;7676;50.900;6.234;2023-05-14T02:23:06;15.10;99.90
15152;DHT22;7676;50.900;6.234;2023-05-14T02:38:24;14.80;99.90
15152;DHT22;7676;50.900;6.234;2023-05-14T02:53:27;14.60;99.90
15152;DHT22;7676;50.900;6.234;2023-05-14T03:08:29;14.50;99.90
15152;DHT22;7676;50.900;6.234;2023-05-14T03:23:32;14.40;99.90
15152;DHT22;7676;50.900;6.234;2023-05-14T03:38:36;14.30;99.90
15152;DHT22;7676;50.900;6.234;2023-05-14T03:53:38;14.40;99.90
15152;DHT22;7676;50.900;6.234;2023-05-14T04:08:41;14.10;99.90
15152;DHT22;7676;50.900;6.234;2023-05-14T04:23:44;13.90;99.90
15152;DHT22;7676;50.900;6.234;2023-05-14T04:38:46;15.40;99.90
15152;DHT22;7676;50.900;6.234;2023-05-14T04:53:48;15.80;99.90
15152;DHT22;7676;50.900;6.234;2023-05-14T05:08:51;16.20;99.90
15152;DHT22;7676;50.900;6.234;2023-05-14T05:23:53;17.20;99.90
15152;DHT22;7676;50.900;6.234;2023-05-14T05:38:56;17.50;99.90
15152;DHT22;7676;50.900;6.234;2023-05-14T05:53:58;18.90;99.90
15152;DHT22;7676;50.900;6.234;2023-05-14T06:09:01;20.10;99.90
15152;DHT22;7676;50.900;6.234;2023-05-14T06:24:03;20.20;99.90
15152;DHT22;7676;50.900;6.234;2023-05-14T06:39:06;20.40;99.90
15152;DHT22;7676;50.900;6.234;2023-05-14T06:54:08;19.90;99.90
15152;DHT22;7676;50.900;6.234;2023-05-14T07:09:11;20.50;99.90
15152;DHT22;7676;50.900;6.234;2023-05-14T07:24:14;19.90;99.90
15152;DHT22;7676;50.900;6.234;2023-05-14T07:39:16;19.70;99.90
15152;DHT22;7676;50.900;6.234;2023-05-14T07:54:19;19.60;99.90
15152;DHT22;7676;50.900;6.234;2023-05-14T08:09:21;19.80;99.90
15152;DHT22;7676;50.900;6.234;2023-05-14T08:24:24;20.00;99.90
15152;DHT22;7676;50.900;6.234;2023-05-14T08:39:26;20.20;99.90
15152;DHT22;7676;50.900;6.234;2023-05-14T08:54:29;20.40;99.90
15152;DHT22;7676;50.900;6.234;2023-05-14T09:09:33;20.60;99.90
15152;DHT22;7676;50.900;6.234;2023-05-14T09:24:36;20.70;99.90
15152;DHT22;7676;50.900;6.234;2023-05-14T09:39:40;21.00;99.90
15152;DHT22;7676;50.900;6.234;2023-05-14T09:54:42;21.10;99.90
15152;DHT22;7676;50.900;6.234;2023-05-14T10:09:45;21.90;99.90
15152;DHT22;7676;50.900;6.234;2023-05-14T10:24:48;21.70;99.90
15152;DHT22;7676;50.900;6.234;2023-05-14T10:40:00;22.30;99.90
15152;DHT22;7676;50.900;6.234;2023-05-14T10:55:04;23.00;99.90
15152;DHT22;7676;50.900;6.234;2023-05-14T11:10:14;22.30;99.90
15152;DHT22;7676;50.900;6.234;2023-05-14T11:25:16;23.80;99.90
15152;DHT22;7676;50.900;6.234;2023-05-14T11:40:20;23.90;99.90
15152;DHT22;7676;50.900;6.234;2023-05-14T11:55:23;23.00;99.90
15152;DHT22;7676;50.900;6.234;2023-05-14T12:10:25;23.50;99.90
15152;DHT22;7676;50.900;6.234;2023-05-14T12:25:29;23.30;99.90
15152;DHT22;7676;50.900;6.234;2023-05-14T12:40:34;23.00;99.90
15152;DHT22;7676;50.900;6.234;2023-05-14T12:55:37;23.20;99.90
15152;DHT22;7676;50.900;6.234;2023-05-14T13:10:39;23.20;99.90
15152;DHT22;7676;50.900;6.234;2023-05-14T13:25:42;22.70;99.90
15152;DHT22;7676;50.900;6.234;2023-05-14T13:40:44;21.50;99.90
15152;DHT22;7676;50.900;6.234;2023-05-14T13:55:47;21.60;99.90
15152;DHT22;7676;50.900;6.234;2023-05-14T14:25:56;21.70;99.90
15152;DHT22;7676;50.900;6.234;2023-05-14T14:41:01;22.40;99.90
15152;DHT22;7676;50.900;6.234;2023-05-14T14:56:05;22.50;99.90
15152;DHT22;7676;50.900;6.234;2023-05-14T15:11:07;22.60;99.90
15152;DHT22;7676;50.900;6.234;2023-05-14T15:26:10;22.40;99.90
15152;DHT22;7676;50.900;6.234;2023-05-14T15:41:13;22.80;99.90
15152;DHT22;7676;50.900;6.234;2023-05-14T15:56:15;22.70;99.90
15152;DHT22;7676;50.900;6.234;2023-05-14T16:11:19;22.90;99.90
15152;DHT22;7676;50.900;6.234;2023-05-14T16:26:23;22.80;99.90
15152;DHT22;7676;50.900;6.234;2023-05-14T16:41:25;21.80;99.90
15152;DHT22;7676;50.900;6.234;2023-05-14T16:56:39;20.80;99.90
15152;DHT22;7676;50.900;6.234;2023-05-14T17:12:25;20.80;99.90
15152;DHT22;7676;50.900;6.234;2023-05-14T17:27:28;20.50;99.90
15152;DHT22;7676;50.900;6.234;2023-05-14T17:42:34;20.20;99.90
15152;DHT22;7676;50.900;6.234;2023-05-14T17:57:37;20.20;99.90
15152;DHT22;7676;50.900;6.234;2023-05-14T18:12:40;20.20;99.90
15152;DHT22;7676;50.900;6.234;2023-05-14T18:27:45;19.80;99.90
15152;DHT22;7676;50.900;6.234;2023-05-14T18:42:48;19.60;99.90
15152;DHT22;7676;50.900;6.234;2023-05-14T18:57:51;20.10;99.90
15152;DHT22;7676;50.900;6.234;2023-05-14T19:12:53;20.20;99.90
15152;DHT22;7676;50.900;6.234;2023-05-14T19:27:56;20.30;99.90
15152;DHT22;7676;50.900;6.234;2023-05-14T19:42:59;20.20;99.90
15152;DHT22;7676;50.900;6.234;2023-05-14T19:58:01;20.00;99.90
15152;DHT22;7676;50.900;6.234;2023-05-14T20:13:04;20.00;99.90
15152;DHT22;7676;50.900;6.234;2023-05-14T20:28:07;20.20;99.90
15152;DHT22;7676;50.900;6.234;2023-05-14T20:43:09;20.10;99.90
15152;DHT22;7676;50.900;6.234;2023-05-14T20:58:11;19.70;99.90
15152;DHT22;7676;50.900;6.234;2023-05-14T21:13:14;19.30;99.90
15152;DHT22;7676;50.900;6.234;2023-05-14T21:28:16;19.40;99.90
15152;DHT22;7676;50.900;6.234;2023-05-14T21:43:19;19.20;99.90
15152;DHT22;7676;50.900;6.234;2023-05-14T21:58:21;18.90;99.90
15152;DHT22;7676;50.900;6.234;2023-05-14T22:13:24;18.60;99.90
15152;DHT22;7676;50.900;6.234;2023-05-14T22:28:26;18.40;99.90
15152;DHT22;7676;50.900;6.234;2023-05-14T22:43:31;18.40;99.90
15152;DHT22;7676;50.900;6.234;2023-05-14T22:58:34;18.40;99.90
15152;DHT22;7676;50.900;6.234;2023-05-14T23:13:36;18.30;99.90
15152;DHT22;7676;50.900;6.234;2023-05-14T23:28:38;17.50;99.90
15152;DHT22;7676;50.900;6.234;2023-05-14T23:43:41;17.70;99.90
15152;DHT22;7676;50.900;6.234;2023-05-14T23:58:45;17.30;99.90
